createdAt,value
2018-09-13T00:00:58.687Z,81.90
2018-09-13T00:02:02.098Z,81.90
2018-09-13T00:03:05.783Z,81.90
2018-09-13T00:04:09.156Z,81.90
2018-09-13T00:05:12.487Z,81.90
2018-09-13T00:06:16.166Z,82.00
2018-09-13T00:07:19.980Z,82.00
2018-09-13T00:08:23.376Z,81.70
2018-09-13T00:09:26.993Z,81.80
2018-09-13T00:10:30.568Z,81.90
2018-09-13T00:11:33.971Z,81.80
2018-09-13T00:12:37.372Z,82.00
2018-09-13T00:13:40.693Z,81.90
2018-09-13T00:14:44.143Z,82.00
2018-09-13T00:15:47.547Z,82.00
2018-09-13T00:16:51.000Z,82.10
2018-09-13T00:17:54.392Z,82.00
2018-09-13T00:18:57.775Z,82.00
2018-09-13T00:20:01.157Z,82.00
2018-09-13T00:21:04.497Z,82.00
2018-09-13T00:22:07.911Z,82.10
2018-09-13T00:23:11.420Z,82.10
2018-09-13T00:24:14.776Z,82.10
2018-09-13T00:25:18.195Z,82.10
2018-09-13T00:26:21.558Z,82.00
2018-09-13T00:27:24.944Z,82.10
2018-09-13T00:28:28.359Z,82.10
2018-09-13T00:29:31.717Z,82.20
2018-09-13T00:30:35.213Z,82.30
2018-09-13T00:31:38.533Z,82.40
2018-09-13T00:32:41.923Z,82.30
2018-09-13T00:33:45.240Z,82.30
2018-09-13T00:34:48.612Z,82.30
2018-09-13T00:35:51.943Z,82.40
2018-09-13T00:36:55.705Z,82.40
2018-09-13T00:37:59.191Z,82.30
2018-09-13T00:39:02.800Z,82.20
2018-09-13T00:40:06.692Z,82.10
2018-09-13T00:41:10.552Z,82.00
2018-09-13T00:42:13.953Z,82.00
2018-09-13T00:43:17.278Z,82.10
2018-09-13T00:44:20.728Z,82.20
2018-09-13T00:45:24.132Z,82.20
2018-09-13T00:46:27.523Z,82.20
2018-09-13T00:47:30.904Z,82.10
2018-09-13T00:48:34.431Z,82.00
2018-09-13T00:49:38.004Z,82.00
2018-09-13T00:50:41.427Z,82.10
2018-09-13T00:51:44.882Z,82.10
2018-09-13T00:52:48.252Z,82.10
2018-09-13T00:53:51.768Z,81.90
2018-09-13T00:54:55.364Z,82.00
2018-09-13T00:55:58.708Z,82.10
2018-09-13T00:57:02.126Z,82.20
2018-09-13T00:58:05.664Z,82.30
2018-09-13T00:59:08.969Z,82.40
2018-09-13T01:00:12.324Z,82.30
2018-09-13T01:01:15.802Z,82.20
2018-09-13T01:02:19.223Z,82.20
2018-09-13T01:03:22.626Z,82.30
2018-09-13T01:04:26.183Z,82.30
2018-09-13T01:05:29.668Z,82.20
2018-09-13T01:06:32.999Z,82.20
2018-09-13T01:07:36.574Z,82.10
2018-09-13T01:08:40.026Z,82.10
2018-09-13T01:09:43.356Z,82.10
2018-09-13T01:10:46.858Z,82.10
2018-09-13T01:11:50.261Z,82.00
2018-09-13T01:12:53.753Z,82.10
2018-09-13T01:13:57.236Z,82.00
2018-09-13T01:15:00.672Z,81.80
2018-09-13T01:16:04.088Z,81.90
2018-09-13T01:17:07.634Z,82.10
2018-09-13T01:18:11.128Z,82.20
2018-09-13T01:19:14.754Z,82.30
2018-09-13T01:20:18.211Z,82.10
2018-09-13T01:21:21.838Z,82.10
2018-09-13T01:22:25.399Z,82.20
2018-09-13T01:23:28.895Z,82.30
2018-09-13T01:24:32.310Z,82.20
2018-09-13T01:25:35.664Z,82.10
2018-09-13T01:26:39.111Z,82.20
2018-09-13T01:27:42.459Z,82.00
2018-09-13T01:28:45.887Z,82.00
2018-09-13T01:29:49.235Z,82.60
2018-09-13T01:30:52.620Z,81.90
2018-09-13T01:31:56.185Z,81.90
2018-09-13T01:32:59.587Z,81.90
2018-09-13T01:34:03.194Z,81.90
2018-09-13T01:35:06.576Z,81.90
2018-09-13T01:36:10.159Z,81.90
2018-09-13T01:37:13.589Z,81.90
2018-09-13T01:38:17.309Z,82.00
2018-09-13T01:39:20.680Z,82.00
2018-09-13T01:40:24.035Z,82.00
2018-09-13T01:41:27.386Z,81.90
2018-09-13T01:42:30.878Z,81.90
2018-09-13T01:43:34.356Z,82.00
2018-09-13T01:44:37.780Z,82.00
2018-09-13T01:45:41.175Z,81.90
2018-09-13T01:46:44.617Z,81.80
2018-09-13T01:47:48.039Z,82.10
2018-09-13T01:48:51.603Z,82.60
2018-09-13T01:49:55.006Z,81.80
2018-09-13T01:50:58.773Z,81.70
2018-09-13T01:52:02.227Z,81.80
2018-09-13T01:53:06.051Z,81.80
2018-09-13T01:54:09.456Z,81.80
2018-09-13T01:55:12.846Z,81.80
2018-09-13T01:56:16.297Z,81.80
2018-09-13T01:57:19.642Z,81.80
2018-09-13T01:58:23.230Z,81.80
2018-09-13T01:59:26.615Z,81.80
2018-09-13T02:00:29.999Z,81.80
2018-09-13T02:01:33.540Z,81.80
2018-09-13T02:02:36.862Z,81.90
2018-09-13T02:03:40.382Z,81.80
2018-09-13T02:04:45.681Z,82.00
2018-09-13T02:05:49.391Z,82.00
2018-09-13T02:06:52.997Z,82.10
2018-09-13T02:07:56.494Z,82.20
2018-09-13T02:08:59.936Z,82.20
2018-09-13T02:10:03.779Z,82.20
2018-09-13T02:11:07.847Z,82.20
2018-09-13T02:12:11.239Z,82.30
2018-09-13T02:13:14.626Z,82.20
2018-09-13T02:14:18.094Z,82.30
2018-09-13T02:15:21.634Z,82.20
2018-09-13T02:16:25.043Z,82.10
2018-09-13T02:17:28.567Z,82.10
2018-09-13T02:18:32.055Z,81.70
2018-09-13T02:19:35.606Z,82.10
2018-09-13T02:20:39.068Z,82.20
2018-09-13T02:21:42.532Z,82.30
2018-09-13T02:22:46.017Z,82.20
2018-09-13T02:23:49.566Z,82.20
2018-09-13T02:24:52.954Z,82.30
2018-09-13T02:25:56.959Z,82.30
2018-09-13T02:27:00.459Z,82.30
2018-09-13T02:28:03.864Z,82.30
2018-09-13T02:29:07.271Z,82.30
2018-09-13T02:30:10.641Z,82.30
2018-09-13T02:31:14.002Z,82.40
2018-09-13T02:32:17.301Z,82.60
2018-09-13T02:33:20.678Z,82.60
2018-09-13T02:34:24.015Z,82.60
2018-09-13T02:35:27.415Z,82.60
2018-09-13T02:36:30.746Z,82.60
2018-09-13T02:37:34.145Z,82.60
2018-09-13T02:38:37.554Z,82.60
2018-09-13T02:39:40.950Z,82.60
2018-09-13T02:40:44.379Z,82.60
2018-09-13T02:41:47.876Z,82.70
2018-09-13T02:42:51.368Z,82.70
2018-09-13T02:43:54.989Z,82.60
2018-09-13T02:44:58.578Z,82.60
2018-09-13T02:46:02.068Z,82.70
2018-09-13T02:47:05.481Z,82.80
2018-09-13T02:48:15.667Z,82.90
2018-09-13T02:49:19.481Z,82.90
2018-09-13T02:50:22.833Z,82.90
2018-09-13T02:51:26.202Z,82.80
2018-09-13T02:52:29.597Z,82.90
2018-09-13T02:53:32.979Z,82.80
2018-09-13T02:54:36.484Z,82.80
2018-09-13T02:55:40.010Z,82.70
2018-09-13T02:56:43.344Z,82.60
2018-09-13T02:57:46.832Z,82.50
2018-09-13T02:58:50.896Z,82.60
2018-09-13T02:59:54.232Z,82.50
2018-09-13T03:00:57.703Z,82.40
2018-09-13T03:02:01.401Z,82.30
2018-09-13T03:03:04.988Z,82.30
2018-09-13T03:04:08.551Z,82.40
2018-09-13T03:05:11.951Z,83.00
2018-09-13T03:06:15.427Z,82.50
2018-09-13T03:07:18.834Z,82.80
2018-09-13T03:08:22.262Z,82.90
2018-09-13T03:09:25.654Z,82.80
2018-09-13T03:10:29.096Z,82.90
2018-09-13T03:11:32.524Z,83.00
2018-09-13T03:12:35.892Z,83.00
2018-09-13T03:13:39.627Z,83.10
2018-09-13T03:14:43.055Z,83.10
2018-09-13T03:15:46.520Z,83.80
2018-09-13T03:16:49.898Z,83.00
2018-09-13T03:17:53.384Z,83.00
2018-09-13T03:18:56.747Z,83.00
2018-09-13T03:20:00.193Z,83.00
2018-09-13T03:21:03.531Z,83.00
2018-09-13T03:22:06.972Z,83.00
2018-09-13T03:23:10.449Z,83.00
2018-09-13T03:24:13.832Z,83.10
2018-09-13T03:25:17.592Z,83.20
2018-09-13T03:26:21.018Z,83.00
2018-09-13T03:27:24.745Z,83.10
2018-09-13T03:28:28.218Z,83.20
2018-09-13T03:29:31.688Z,83.30
2018-09-13T03:30:35.126Z,83.30
2018-09-13T03:31:38.461Z,83.30
2018-09-13T03:32:41.903Z,83.10
2018-09-13T03:33:45.394Z,83.00
2018-09-13T03:34:48.798Z,83.00
2018-09-13T03:35:52.242Z,83.70
2018-09-13T03:36:57.099Z,83.10
2018-09-13T03:38:00.428Z,83.20
2018-09-13T03:39:06.785Z,83.40
2018-09-13T03:40:10.113Z,83.60
2018-09-13T03:41:13.446Z,84.10
2018-09-13T03:42:16.880Z,84.50
2018-09-13T03:43:20.237Z,84.90
2018-09-13T03:44:23.786Z,85.00
2018-09-13T03:45:27.430Z,85.00
2018-09-13T03:46:31.154Z,84.80
2018-09-13T03:47:34.524Z,84.70
2018-09-13T03:48:37.898Z,84.50
2018-09-13T03:49:41.502Z,84.60
2018-09-13T03:50:44.887Z,84.50
2018-09-13T03:51:48.218Z,84.40
2018-09-13T03:52:51.563Z,84.30
2018-09-13T03:53:54.946Z,84.20
2018-09-13T03:54:58.772Z,84.30
2018-09-13T03:56:02.494Z,84.50
2018-09-13T03:57:06.134Z,84.70
2018-09-13T03:58:09.855Z,84.80
2018-09-13T03:59:13.548Z,85.00
2018-09-13T04:00:17.315Z,85.20
2018-09-13T04:01:20.815Z,85.30
2018-09-13T04:02:24.403Z,85.40
2018-09-13T04:03:27.968Z,85.20
2018-09-13T04:04:31.675Z,84.90
2018-09-13T04:05:35.204Z,84.90
2018-09-13T04:06:38.649Z,84.50
2018-09-13T04:07:42.141Z,84.30
2018-09-13T04:08:45.940Z,84.30
2018-09-13T04:09:49.450Z,84.30
2018-09-13T04:10:52.882Z,84.10
2018-09-13T04:11:56.227Z,84.00
2018-09-13T04:12:59.824Z,83.90
2018-09-13T04:14:03.244Z,83.80
2018-09-13T04:15:06.864Z,83.70
2018-09-13T04:16:10.530Z,83.60
2018-09-13T04:17:13.959Z,83.70
2018-09-13T04:18:17.399Z,83.60
2018-09-13T04:19:20.776Z,83.60
2018-09-13T04:20:24.403Z,83.50
2018-09-13T04:21:28.261Z,83.50
2018-09-13T04:22:31.679Z,83.30
2018-09-13T04:23:35.133Z,83.40
2018-09-13T04:24:38.553Z,83.10
2018-09-13T04:25:41.989Z,82.90
2018-09-13T04:26:45.325Z,82.70
2018-09-13T04:27:48.793Z,82.60
2018-09-13T04:28:52.441Z,82.80
2018-09-13T04:29:56.611Z,82.70
2018-09-13T04:31:00.169Z,82.80
2018-09-13T04:32:03.817Z,82.80
2018-09-13T04:33:08.082Z,83.00
2018-09-13T04:34:11.929Z,83.00
2018-09-13T04:35:15.331Z,83.10
2018-09-13T04:36:18.690Z,83.30
2018-09-13T04:37:22.203Z,83.40
2018-09-13T04:38:25.548Z,83.50
2018-09-13T04:39:28.935Z,83.60
2018-09-13T04:40:32.551Z,83.40
2018-09-13T04:41:36.338Z,83.40
2018-09-13T04:42:39.748Z,83.30
2018-09-13T04:43:43.302Z,83.20
2018-09-13T04:44:46.681Z,83.20
2018-09-13T04:45:50.407Z,83.00
2018-09-13T04:46:54.057Z,83.70
2018-09-13T04:47:57.556Z,83.10
2018-09-13T04:49:01.220Z,83.20
2018-09-13T04:50:05.865Z,83.20
2018-09-13T04:51:09.371Z,83.20
2018-09-13T04:52:12.896Z,83.20
2018-09-13T04:53:16.415Z,83.20
2018-09-13T04:54:19.795Z,83.40
2018-09-13T04:55:23.149Z,83.60
2018-09-13T04:56:26.577Z,83.80
2018-09-13T04:57:29.902Z,83.70
2018-09-13T04:58:33.439Z,83.70
2018-09-13T04:59:36.808Z,83.50
2018-09-13T05:00:40.268Z,83.50
2018-09-13T05:01:43.783Z,83.40
2018-09-13T05:02:47.275Z,83.30
2018-09-13T05:03:50.657Z,83.30
2018-09-13T05:04:53.996Z,83.50
2018-09-13T05:05:57.431Z,83.50
2018-09-13T05:07:00.958Z,83.40
2018-09-13T05:08:04.351Z,83.20
2018-09-13T05:09:10.649Z,83.10
2018-09-13T05:10:14.182Z,83.20
2018-09-13T05:11:17.572Z,83.20
2018-09-13T05:12:20.990Z,83.30
2018-09-13T05:13:24.678Z,83.30
2018-09-13T05:14:28.243Z,83.20
2018-09-13T05:15:31.689Z,83.20
2018-09-13T05:16:35.130Z,83.10
2018-09-13T05:17:38.586Z,83.00
2018-09-13T05:18:42.073Z,83.10
2018-09-13T05:19:45.431Z,83.60
2018-09-13T05:20:48.825Z,82.60
2018-09-13T05:21:52.185Z,83.10
2018-09-13T05:22:55.537Z,83.20
2018-09-13T05:23:59.196Z,83.10
2018-09-13T05:25:03.187Z,83.00
2018-09-13T05:26:06.515Z,83.20
2018-09-13T05:27:09.848Z,84.00
2018-09-13T05:28:13.287Z,83.40
2018-09-13T05:29:16.735Z,83.40
2018-09-13T05:30:20.095Z,83.30
2018-09-13T05:31:23.476Z,83.10
2018-09-13T05:32:26.970Z,83.00
2018-09-13T05:33:30.367Z,82.90
2018-09-13T05:34:33.688Z,82.90
2018-09-13T05:35:37.050Z,83.00
2018-09-13T05:36:40.464Z,83.10
2018-09-13T05:37:43.870Z,83.00
2018-09-13T05:38:47.277Z,82.90
2018-09-13T05:39:50.699Z,82.80
2018-09-13T05:40:54.240Z,83.50
2018-09-13T05:41:57.653Z,83.50
2018-09-13T05:43:01.400Z,82.80
2018-09-13T05:44:04.829Z,82.70
2018-09-13T05:45:08.304Z,82.60
2018-09-13T05:46:11.981Z,82.60
2018-09-13T05:47:15.420Z,82.60
2018-09-13T05:48:18.756Z,82.60
2018-09-13T05:49:22.277Z,82.70
2018-09-13T05:50:25.620Z,82.60
2018-09-13T05:51:29.022Z,82.70
2018-09-13T05:52:32.416Z,82.70
2018-09-13T05:53:35.954Z,82.50
2018-09-13T05:54:39.775Z,82.50
2018-09-13T05:55:43.157Z,82.70
2018-09-13T05:56:46.574Z,82.80
2018-09-13T05:57:49.913Z,82.80
2018-09-13T05:58:53.872Z,82.80
2018-09-13T05:59:57.219Z,83.00
2018-09-13T06:01:01.041Z,82.90
2018-09-13T06:02:04.633Z,83.50
2018-09-13T06:03:08.018Z,82.90
2018-09-13T06:04:11.407Z,82.70
2018-09-13T06:05:14.819Z,82.60
2018-09-13T06:06:18.170Z,82.60
2018-09-13T06:07:21.902Z,82.60
2018-09-13T06:08:25.273Z,82.50
2018-09-13T06:09:28.634Z,82.50
2018-09-13T06:10:32.004Z,82.40
2018-09-13T06:11:36.324Z,82.60
2018-09-13T06:12:40.172Z,82.70
2018-09-13T06:13:43.551Z,82.80
2018-09-13T06:14:47.769Z,82.70
2018-09-13T06:15:51.192Z,82.70
2018-09-13T06:16:54.707Z,82.50
2018-09-13T06:17:58.125Z,82.40
2018-09-13T06:19:01.854Z,82.60
2018-09-13T06:20:05.248Z,83.00
2018-09-13T06:21:07.916Z,83.20
2018-09-13T06:22:11.283Z,83.10
2018-09-13T06:23:14.237Z,83.60
2018-09-13T06:24:17.122Z,83.30
2018-09-13T06:25:20.076Z,83.20
2018-09-13T06:26:22.863Z,82.90
2018-09-13T06:27:25.610Z,82.60
2018-09-13T06:28:28.404Z,82.50
2018-09-13T06:29:31.287Z,82.60
2018-09-13T06:30:34.821Z,82.30
2018-09-13T06:31:37.940Z,82.80
2018-09-13T06:32:40.702Z,81.40
2018-09-13T06:33:43.435Z,81.10
2018-09-13T06:34:46.762Z,80.90
2018-09-13T06:35:49.490Z,80.70
2018-09-13T06:36:52.266Z,80.70
2018-09-13T06:37:55.065Z,80.80
2018-09-13T06:38:57.840Z,81.00
2018-09-13T06:40:01.396Z,81.10
2018-09-13T06:41:04.854Z,81.10
2018-09-13T06:42:07.585Z,81.10
2018-09-13T06:43:10.324Z,81.30
2018-09-13T06:44:13.971Z,81.30
2018-09-13T06:45:17.361Z,81.70
2018-09-13T06:46:20.837Z,81.80
2018-09-13T06:47:24.217Z,81.90
2018-09-13T06:48:27.064Z,81.90
2018-09-13T06:49:29.822Z,81.80
2018-09-13T06:50:33.344Z,81.70
2018-09-13T06:51:36.848Z,81.70
2018-09-13T06:52:39.670Z,81.90
2018-09-13T06:53:42.475Z,81.90
2018-09-13T06:54:45.394Z,81.60
2018-09-13T06:55:48.196Z,81.30
2018-09-13T06:56:51.216Z,81.30
2018-09-13T06:57:54.149Z,81.10
2018-09-13T06:58:57.150Z,80.90
2018-09-13T07:00:00.059Z,80.80
2018-09-13T07:01:03.431Z,81.10
2018-09-13T07:02:06.612Z,80.80
2018-09-13T07:03:09.436Z,80.60
2018-09-13T07:04:12.258Z,80.30
2018-09-13T07:05:15.193Z,79.80
2018-09-13T07:06:18.035Z,79.50
2018-09-13T07:07:21.010Z,78.80
2018-09-13T07:08:23.810Z,78.20
2018-09-13T07:09:26.627Z,78.20
2018-09-13T07:10:29.814Z,78.20
2018-09-13T07:11:32.655Z,78.40
2018-09-13T07:12:35.505Z,77.80
2018-09-13T07:13:38.916Z,77.40
2018-09-13T07:14:41.710Z,77.40
2018-09-13T07:15:44.593Z,77.40
2018-09-13T07:16:47.470Z,77.40
2018-09-13T07:17:50.442Z,77.30
2018-09-13T07:18:53.272Z,77.10
2018-09-13T07:19:56.021Z,76.90
2018-09-13T07:20:58.750Z,76.60
2018-09-13T07:22:01.635Z,77.00
2018-09-13T07:23:04.551Z,77.10
2018-09-13T07:24:07.362Z,77.20
2018-09-13T07:25:10.338Z,77.30
2018-09-13T07:26:13.195Z,77.40
2018-09-13T07:27:15.967Z,77.20
2018-09-13T07:28:18.834Z,77.20
2018-09-13T07:29:21.606Z,76.60
2018-09-13T07:30:24.351Z,76.90
2018-09-13T07:31:27.523Z,76.00
2018-09-13T07:32:30.428Z,75.60
2018-09-13T07:33:33.312Z,75.40
2018-09-13T07:34:36.199Z,75.40
2018-09-13T07:35:38.981Z,75.60
2018-09-13T07:36:41.892Z,75.80
2018-09-13T07:37:44.854Z,75.50
2018-09-13T07:38:47.611Z,75.50
2018-09-13T07:39:50.438Z,75.50
2018-09-13T07:40:53.225Z,75.90
2018-09-13T07:41:55.979Z,77.00
2018-09-13T07:42:58.850Z,76.40
2018-09-13T07:44:01.584Z,76.80
2018-09-13T07:45:04.841Z,76.40
2018-09-13T07:46:07.652Z,76.60
2018-09-13T07:47:10.578Z,77.60
2018-09-13T07:48:13.547Z,77.30
2018-09-13T07:49:16.677Z,76.80
2018-09-13T07:50:19.447Z,77.00
2018-09-13T07:51:22.438Z,77.10
2018-09-13T07:52:25.703Z,77.30
2018-09-13T07:53:28.553Z,77.40
2018-09-13T07:54:31.405Z,77.90
2018-09-13T07:55:34.655Z,77.30
2018-09-13T07:56:37.766Z,77.40
2018-09-13T07:57:40.664Z,76.30
2018-09-13T07:58:43.535Z,76.70
2018-09-13T07:59:46.388Z,77.00
2018-09-13T08:00:52.850Z,77.70
2018-09-13T08:01:55.741Z,77.90
2018-09-13T08:02:58.648Z,78.00
2018-09-13T08:04:01.434Z,77.40
2018-09-13T08:05:05.165Z,77.20
2018-09-13T08:06:08.020Z,77.50
2018-09-13T08:07:13.692Z,77.30
2018-09-13T08:08:19.667Z,77.00
2018-09-13T08:09:23.182Z,76.70
2018-09-13T08:10:25.958Z,76.30
2018-09-13T08:11:29.063Z,76.60
2018-09-13T08:12:31.900Z,76.60
2018-09-13T08:13:34.727Z,76.90
2018-09-13T08:14:37.602Z,77.50
2018-09-13T08:15:40.490Z,76.30
2018-09-13T08:16:43.346Z,76.30
2018-09-13T08:17:46.192Z,76.50
2018-09-13T08:18:49.081Z,76.50
2018-09-13T08:20:46.712Z,76.20
2018-09-13T08:21:19.625Z,75.30
2018-09-13T08:21:52.519Z,75.20
2018-09-13T08:22:25.418Z,74.70
2018-09-13T08:22:58.188Z,74.40
2018-09-13T08:23:31.040Z,73.80
2018-09-13T08:24:04.080Z,73.60
2018-09-13T08:24:36.880Z,73.10
2018-09-13T08:25:09.708Z,73.10
2018-09-13T08:25:43.956Z,73.30
2018-09-13T08:26:17.362Z,73.30
2018-09-13T08:26:50.923Z,72.10
2018-09-13T08:27:24.410Z,70.70
2018-09-13T08:27:57.807Z,71.40
2018-09-13T08:28:31.316Z,70.80
2018-09-13T08:29:04.735Z,69.80
2018-09-13T08:29:38.177Z,69.50
2018-09-13T08:30:11.598Z,69.40
2018-09-13T08:30:44.972Z,69.40
2018-09-13T08:31:18.363Z,69.10
2018-09-13T08:31:51.653Z,68.60
2018-09-13T08:32:25.260Z,68.10
2018-09-13T08:32:58.665Z,67.90
2018-09-13T08:33:32.267Z,64.20
2018-09-13T08:34:05.732Z,63.60
2018-09-13T08:34:39.123Z,63.60
2018-09-13T08:35:12.564Z,64.00
2018-09-13T08:35:46.141Z,64.30
2018-09-13T08:36:19.722Z,64.60
2018-09-13T08:36:53.208Z,64.80
2018-09-13T08:37:26.548Z,65.00
2018-09-13T08:37:59.940Z,65.20
2018-09-13T08:38:33.372Z,65.20
2018-09-13T08:39:10.648Z,65.40
2018-09-13T08:39:44.164Z,65.30
2018-09-13T08:40:17.685Z,65.00
2018-09-13T08:40:51.366Z,65.10
2018-09-13T08:41:24.956Z,64.80
2018-09-13T08:41:58.521Z,64.30
2018-09-13T08:42:32.218Z,64.00
2018-09-13T08:43:06.403Z,64.30
2018-09-13T08:43:40.141Z,64.30
2018-09-13T08:44:13.020Z,64.40
2018-09-13T08:44:45.810Z,64.50
2018-09-13T08:45:18.587Z,64.50
2018-09-13T08:45:51.839Z,64.30
2018-09-13T08:46:24.904Z,63.90
2018-09-13T08:46:57.851Z,63.20
2018-09-13T08:47:30.775Z,62.80
2018-09-13T08:48:04.286Z,62.50
2018-09-13T08:48:37.655Z,63.00
2018-09-13T08:49:11.246Z,62.10
2018-09-13T08:49:45.279Z,62.20
2018-09-13T08:50:19.196Z,62.20
2018-09-13T08:50:52.850Z,62.10
2018-09-13T08:51:26.793Z,61.70
2018-09-13T08:52:03.556Z,61.20
2018-09-13T08:52:37.275Z,61.60
2018-09-13T08:53:10.738Z,62.00
2018-09-13T08:53:44.435Z,62.00
2018-09-13T08:54:17.784Z,61.60
2018-09-13T08:54:51.119Z,61.50
2018-09-13T08:55:24.527Z,61.80
2018-09-13T08:55:58.644Z,62.00
2018-09-13T08:56:32.122Z,62.20
2018-09-13T08:57:05.945Z,61.90
2018-09-13T08:57:39.822Z,61.40
2018-09-13T08:58:13.286Z,61.70
2018-09-13T08:58:46.753Z,61.70
2018-09-13T08:59:20.255Z,61.80
2018-09-13T08:59:53.682Z,62.10
2018-09-13T09:00:27.321Z,61.90
2018-09-13T09:01:00.764Z,61.60
2018-09-13T09:01:34.218Z,62.20
2018-09-13T09:02:07.754Z,62.80
2018-09-13T09:02:41.739Z,63.20
2018-09-13T09:03:15.133Z,63.50
2018-09-13T09:03:48.754Z,63.60
2018-09-13T09:04:22.279Z,63.90
2018-09-13T09:04:55.590Z,63.80
2018-09-13T09:05:29.001Z,63.50
2018-09-13T09:06:02.694Z,62.80
2018-09-13T09:06:36.354Z,62.10
2018-09-13T09:07:09.895Z,61.90
2018-09-13T09:07:43.304Z,61.70
2018-09-13T09:08:16.888Z,61.30
2018-09-13T09:08:50.304Z,61.10
2018-09-13T09:09:23.898Z,61.00
2018-09-13T09:09:57.468Z,60.90
2018-09-13T09:10:31.075Z,60.50
2018-09-13T09:11:05.230Z,60.20
2018-09-13T09:11:38.104Z,60.00
2018-09-13T09:12:11.046Z,59.70
2018-09-13T09:12:43.806Z,59.60
2018-09-13T09:13:16.614Z,59.40
2018-09-13T09:13:49.373Z,59.30
2018-09-13T09:14:22.149Z,59.30
2018-09-13T09:14:55.286Z,59.30
2018-09-13T09:15:28.256Z,59.80
2018-09-13T09:16:00.976Z,59.30
2018-09-13T09:16:34.436Z,59.00
2018-09-13T09:17:08.007Z,59.50
2018-09-13T09:17:41.423Z,58.70
2018-09-13T09:18:15.016Z,57.90
2018-09-13T09:18:48.632Z,57.60
2018-09-13T09:19:22.077Z,57.90
2018-09-13T09:19:55.266Z,58.20
2018-09-13T09:20:28.714Z,57.80
2018-09-13T09:21:01.529Z,57.60
2018-09-13T09:21:34.320Z,57.80
2018-09-13T09:22:07.250Z,57.60
2018-09-13T09:22:40.664Z,56.50
2018-09-13T09:23:14.069Z,54.50
2018-09-13T09:23:47.712Z,53.90
2018-09-13T09:24:21.294Z,53.20
2018-09-13T09:24:55.596Z,53.70
2018-09-13T09:25:28.946Z,53.30
2018-09-13T09:26:02.389Z,53.60
2018-09-13T09:26:35.848Z,54.10
2018-09-13T09:27:09.333Z,55.00
2018-09-13T09:27:42.708Z,56.20
2018-09-13T09:28:15.579Z,55.70
2018-09-13T09:28:49.739Z,55.70
2018-09-13T09:29:22.480Z,55.30
2018-09-13T09:29:55.372Z,53.30
2018-09-13T09:30:28.328Z,52.90
2018-09-13T09:31:01.166Z,52.90
2018-09-13T09:31:33.967Z,52.90
2018-09-13T09:32:07.207Z,53.30
2018-09-13T09:32:40.022Z,53.40
2018-09-13T09:33:12.713Z,53.60
2018-09-13T09:33:45.909Z,53.70
2018-09-13T09:34:18.667Z,53.40
2018-09-13T09:34:51.566Z,53.20
2018-09-13T09:35:24.141Z,53.40
2018-09-13T09:35:56.937Z,52.90
2018-09-13T09:36:29.718Z,52.90
2018-09-13T09:37:02.450Z,52.90
2018-09-13T09:37:35.463Z,53.00
2018-09-13T09:38:08.326Z,53.00
2018-09-13T09:38:41.163Z,52.90
2018-09-13T09:39:14.558Z,53.00
2018-09-13T09:39:47.481Z,52.70
2018-09-13T09:40:20.477Z,52.50
2018-09-13T09:43:57.376Z,52.50
2018-09-13T09:44:30.952Z,50.50
2018-09-13T09:45:04.555Z,51.00
2018-09-13T09:45:38.401Z,51.90
2018-09-13T09:46:11.628Z,52.70
2018-09-13T09:46:45.076Z,53.30
2018-09-13T09:47:18.588Z,54.10
2018-09-13T09:47:52.125Z,55.50
2018-09-13T09:48:25.532Z,55.50
2018-09-13T09:48:58.969Z,55.80
2018-09-13T09:49:32.406Z,55.20
2018-09-13T09:50:06.557Z,54.10
2018-09-13T09:50:40.002Z,52.60
2018-09-13T09:51:13.508Z,53.90
2018-09-13T09:51:46.857Z,55.10
2018-09-13T09:52:20.324Z,55.30
2018-09-13T09:52:53.912Z,55.40
2018-09-13T09:53:27.412Z,55.30
2018-09-13T09:54:01.159Z,53.90
2018-09-13T09:54:34.655Z,52.80
2018-09-13T09:55:08.630Z,53.20
2018-09-13T09:55:42.097Z,53.30
2018-09-13T09:56:16.018Z,53.50
2018-09-13T09:56:49.603Z,53.60
2018-09-13T09:57:22.932Z,53.90
2018-09-13T09:57:56.399Z,53.30
2018-09-13T09:58:29.794Z,52.60
2018-09-13T09:59:03.258Z,52.60
2018-09-13T09:59:36.729Z,52.60
2018-09-13T10:00:10.351Z,52.60
2018-09-13T10:00:49.307Z,52.80
2018-09-13T10:01:28.597Z,52.90
2018-09-13T10:02:07.720Z,53.50
2018-09-13T10:02:41.112Z,53.90
2018-09-13T10:03:14.595Z,54.30
2018-09-13T10:03:47.961Z,53.80
2018-09-13T10:04:21.362Z,54.20
2018-09-13T10:04:54.701Z,53.30
2018-09-13T10:05:28.084Z,53.70
2018-09-13T10:06:01.587Z,53.10
2018-09-13T10:06:35.127Z,54.80
2018-09-13T10:07:08.524Z,55.00
2018-09-13T10:07:43.431Z,55.10
2018-09-13T10:08:16.816Z,55.50
2018-09-13T10:08:50.207Z,55.80
2018-09-13T10:09:23.660Z,55.90
2018-09-13T10:09:58.123Z,55.00
2018-09-13T10:10:31.513Z,54.50
2018-09-13T10:11:04.988Z,54.20
2018-09-13T10:11:38.290Z,54.10
2018-09-13T10:12:12.570Z,54.20
2018-09-13T10:12:46.011Z,54.60
2018-09-13T10:13:19.389Z,54.30
2018-09-13T10:13:52.776Z,54.30
2018-09-13T10:14:26.234Z,54.30
2018-09-13T10:15:05.704Z,54.00
2018-09-13T10:15:45.576Z,54.50
2018-09-13T10:16:25.543Z,54.20
2018-09-13T10:17:04.784Z,54.20
2018-09-13T10:17:44.250Z,54.40
2018-09-13T10:18:23.727Z,54.70
2018-09-13T10:19:03.579Z,54.70
2018-09-13T10:19:43.049Z,54.20
2018-09-13T10:20:22.702Z,54.40
2018-09-13T10:21:01.894Z,54.40
2018-09-13T10:21:41.463Z,54.40
2018-09-13T10:22:20.696Z,54.70
2018-09-13T10:23:00.269Z,55.00
2018-09-13T10:23:39.839Z,54.30
2018-09-13T10:24:19.028Z,54.80
2018-09-13T10:24:58.496Z,55.00
2018-09-13T10:25:37.734Z,55.00
2018-09-13T10:26:17.250Z,54.80
2018-09-13T10:26:56.570Z,55.10
2018-09-13T10:27:36.127Z,55.80
2018-09-13T10:28:15.668Z,55.90
2018-09-13T10:28:55.457Z,55.60
2018-09-13T10:29:34.745Z,55.50
2018-09-13T10:30:14.003Z,55.10
2018-09-13T10:30:53.110Z,55.00
2018-09-13T10:31:32.849Z,55.00
2018-09-13T10:32:11.979Z,55.20
2018-09-13T10:33:55.246Z,55.90
2018-09-13T10:34:34.611Z,56.20
2018-09-13T10:35:14.615Z,56.10
2018-09-13T10:35:53.808Z,56.60
2018-09-13T10:36:34.559Z,55.10
2018-09-13T10:37:14.362Z,54.80
2018-09-13T10:37:53.401Z,55.10
2018-09-13T10:38:32.380Z,55.40
2018-09-13T10:39:14.369Z,55.80
2018-09-13T10:39:53.364Z,55.10
2018-09-13T10:40:32.571Z,55.70
2018-09-13T10:41:11.709Z,55.60
2018-09-13T10:41:50.525Z,55.70
2018-09-13T10:42:29.450Z,53.80
2018-09-13T10:43:08.398Z,53.40
2018-09-13T10:43:47.450Z,53.30
2018-09-13T10:44:26.494Z,53.70
2018-09-13T10:45:05.544Z,53.50
2018-09-13T10:45:44.668Z,53.20
2018-09-13T10:46:25.732Z,53.90
2018-09-13T10:47:04.582Z,53.50
2018-09-13T10:47:43.633Z,54.10
2018-09-13T10:48:28.206Z,54.50
2018-09-13T10:49:07.139Z,55.20
2018-09-13T10:49:46.302Z,54.50
2018-09-13T10:50:24.484Z,54.00
2018-09-13T10:51:03.528Z,53.30
2018-09-13T10:51:42.487Z,53.20
2018-09-13T10:52:19.569Z,53.50
2018-09-13T10:53:09.480Z,53.90
2018-09-13T10:53:44.581Z,54.00
2018-09-13T10:54:26.833Z,54.30
2018-09-13T10:55:00.163Z,53.80
2018-09-13T10:55:33.618Z,53.10
2018-09-13T10:56:07.674Z,53.80
2018-09-13T10:56:41.228Z,53.30
2018-09-13T10:57:20.283Z,53.10
2018-09-13T10:57:53.835Z,53.20
2018-09-13T10:58:27.826Z,53.00
2018-09-13T10:59:01.410Z,52.50
2018-09-13T10:59:34.771Z,52.30
2018-09-13T11:00:10.993Z,52.90
2018-09-13T11:00:44.562Z,52.70
2018-09-13T11:01:18.208Z,52.30
2018-09-13T11:01:51.540Z,52.10
2018-09-13T11:02:25.049Z,51.90
2018-09-13T11:02:58.445Z,51.60
2018-09-13T11:03:31.763Z,50.70
2018-09-13T11:04:06.156Z,50.70
2018-09-13T11:04:40.516Z,50.80
2018-09-13T11:05:13.927Z,48.90
2018-09-13T11:05:47.339Z,48.30
2018-09-13T11:06:20.761Z,47.70
2018-09-13T11:06:54.115Z,48.20
2018-09-13T11:07:27.477Z,48.00
2018-09-13T11:08:00.815Z,48.40
2018-09-13T11:08:34.242Z,48.90
2018-09-13T11:09:07.758Z,49.90
2018-09-13T11:09:41.155Z,50.20
2018-09-13T11:10:15.477Z,50.00
2018-09-13T11:10:48.988Z,50.10
2018-09-13T11:11:22.361Z,50.70
2018-09-13T11:11:55.701Z,51.30
2018-09-13T11:12:34.599Z,49.80
2018-09-13T11:13:12.434Z,48.70
2018-09-13T11:13:57.782Z,49.00
2018-09-13T11:14:35.887Z,50.00
2018-09-13T11:15:14.592Z,48.30
2018-09-13T11:15:47.977Z,47.80
2018-09-13T11:16:21.956Z,48.50
2018-09-13T11:16:55.393Z,49.20
2018-09-13T11:17:28.828Z,48.40
2018-09-13T11:18:04.714Z,48.00
2018-09-13T11:18:38.174Z,48.00
2018-09-13T11:19:11.684Z,47.40